»·PEaware :: VIP318 KUKI-KSLE

VIP318 :: KUKI-KSLE

FLIGHT INFORMATION

Flight Status: Arrived
Operator:
Virtual Pilots Association (website)
More flights by this operator :: More flights under this callsign
Pilot: Chris B. (15698)
Aircraft: PIAGGIO P-180 AVANTI
(P180)
More flights by this aircraft type
Origin: KUKI Ukiah Mun
United States
Destination: KSLE McNary
United States
More flights between these airports :: More routes between these airports
Route: +ENI J143 EUG
File this flight plan on PilotEdge
Remarks:
Altitude:
(Current/Filed)
21,000ft
Speed:
(Current/Filed)
340kts
Departed: 22-Jan-18 01:25 PM
Arrived: 22-Jan-18 02:52 PM
Distance/Time
Traveled:
347nm/1:26
Distance/Time
To Go:
Arrived

Flight Plot

Page will automatically refresh every two minutes.

Flight plan parsing failed; only flown route is shown


Map Options




Map Legend


Flown Route
Filed Route
Departure Airport
Arrival Airport
Navaid (VOR, NDB)
Fix

Horizontal Profiles

Position Reports

Time Latitude Longitude Heading Altitude Ground
Speed
22-Jan-18 13:17 39.128556 -123.203202 264 618ft 0kts
22-Jan-18 13:18 39.128556 -123.203202 264 618ft 0kts
22-Jan-18 13:19 39.128556 -123.203202 264 618ft 0kts
22-Jan-18 13:20 39.128556 -123.203202 264 618ft 0kts
22-Jan-18 13:21 39.128556 -123.203202 264 618ft 0kts
22-Jan-18 13:22 39.128556 -123.203202 264 618ft 0kts
22-Jan-18 13:23 39.128556 -123.203202 264 618ft 0kts
22-Jan-18 13:24 39.128556 -123.203202 264 618ft 0kts
22-Jan-18 13:25 39.128556 -123.203202 264 618ft 0kts
22-Jan-18 13:26 39.128556 -123.203202 264 618ft 0kts
22-Jan-18 13:27 39.128556 -123.203202 264 618ft 0kts
22-Jan-18 13:28 39.127100 -123.202526 153 618ft 24kts
22-Jan-18 13:29 39.119998 -123.199833 81 618ft 0kts
22-Jan-18 13:30 39.119998 -123.199833 81 618ft 0kts
22-Jan-18 13:31 39.123157 -123.200115 350 618ft 76kts
22-Jan-18 13:32 39.157124 -123.208550 349 1881ft 140kts
22-Jan-18 13:33 39.200585 -123.218936 348 3577ft 173kts
22-Jan-18 13:34 39.247945 -123.229968 347 5712ft 176kts
22-Jan-18 13:35 39.297460 -123.233125 3 7683ft 188kts
22-Jan-18 13:36 39.349572 -123.222796 3 9595ft 195kts
22-Jan-18 13:37 39.403573 -123.211668 3 11347ft 201kts
22-Jan-18 13:38 39.458834 -123.199219 3 13222ft 207kts
22-Jan-18 13:39 39.515637 -123.185219 3 15209ft 212kts
22-Jan-18 13:40 39.573588 -123.169782 3 17223ft 216kts
22-Jan-18 13:41 39.631417 -123.163189 334 19147ft 205kts
22-Jan-18 13:42 39.685380 -123.188815 333 20921ft 211kts
22-Jan-18 13:43 39.741281 -123.215484 334 22331ft 233kts
22-Jan-18 13:44 39.808750 -123.249596 334 22343ft 289kts
22-Jan-18 13:45 39.886512 -123.290209 334 22335ft 308kts
22-Jan-18 13:46 39.972663 -123.297814 354 22368ft 318kts
22-Jan-18 13:47 40.060562 -123.298448 353 22392ft 318kts
22-Jan-18 13:48 40.144406 -123.299774 353 22384ft 319kts
22-Jan-18 13:49 40.228418 -123.301155 353 22383ft 320kts
22-Jan-18 13:50 40.316920 -123.302618 353 22374ft 320kts
22-Jan-18 13:51 40.404136 -123.304063 353 22373ft 321kts
22-Jan-18 13:52 40.492687 -123.305535 353 22373ft 321kts
22-Jan-18 13:53 40.580975 -123.307006 353 22372ft 321kts
22-Jan-18 13:54 40.669227 -123.308481 353 22372ft 321kts
22-Jan-18 13:55 40.757218 -123.309956 353 22371ft 320kts
22-Jan-18 13:56 40.845589 -123.311440 353 22371ft 320kts
22-Jan-18 13:57 40.933698 -123.312924 353 22370ft 320kts
22-Jan-18 13:58 41.021540 -123.314408 353 22370ft 320kts
22-Jan-18 13:59 41.100229 -123.315740 353 22369ft 320kts
22-Jan-18 14:00 41.173002 -123.316973 353 22374ft 321kts
22-Jan-18 14:01 41.261102 -123.318463 353 22374ft 321kts
22-Jan-18 14:02 41.349364 -123.319976 353 22373ft 321kts
22-Jan-18 14:03 41.437161 -123.321478 353 22373ft 321kts
22-Jan-18 14:04 41.522715 -123.322946 353 22372ft 321kts
22-Jan-18 14:05 41.610148 -123.324449 353 22363ft 321kts
22-Jan-18 14:06 41.697366 -123.325953 353 22362ft 321kts
22-Jan-18 14:07 41.784019 -123.327422 353 22362ft 322kts
22-Jan-18 14:08 41.872312 -123.328980 353 22377ft 322kts
22-Jan-18 14:09 41.960805 -123.330522 353 22379ft 323kts
22-Jan-18 14:10 42.050176 -123.332079 353 22379ft 323kts
22-Jan-18 14:11 42.126143 -123.333405 353 22437ft 322kts
22-Jan-18 14:12 42.207438 -123.334830 353 22438ft 323kts
22-Jan-18 14:13 42.296687 -123.336367 352 22437ft 323kts
22-Jan-18 14:14 42.386099 -123.337969 352 22437ft 323kts
22-Jan-18 14:15 42.475255 -123.339546 352 22436ft 323kts
22-Jan-18 14:16 42.564571 -123.341130 352 22423ft 323kts
22-Jan-18 14:17 42.654316 -123.342725 352 22316ft 325kts
22-Jan-18 14:18 42.743417 -123.344311 352 22316ft 324kts
22-Jan-18 14:19 42.815462 -123.345592 352 22316ft 324kts
22-Jan-18 14:20 42.919697 -123.347468 352 22315ft 324kts
22-Jan-18 14:21 42.994047 -123.348799 352 22373ft 322kts
22-Jan-18 14:22 43.083195 -123.350412 352 22379ft 323kts
22-Jan-18 14:23 43.152321 -123.351658 352 22383ft 323kts
22-Jan-18 14:24 43.230943 -123.345424 358 22383ft 328kts
22-Jan-18 14:25 43.319917 -123.333480 358 22382ft 329kts
22-Jan-18 14:26 43.408562 -123.321388 358 22382ft 329kts
22-Jan-18 14:27 43.496125 -123.309396 358 22381ft 329kts
22-Jan-18 14:28 43.582119 -123.297562 358 22011ft 319kts
22-Jan-18 14:29 43.661314 -123.286667 358 20584ft 302kts
22-Jan-18 14:30 43.732272 -123.276883 358 19256ft 291kts
22-Jan-18 14:31 43.800715 -123.267404 358 17941ft 284kts
22-Jan-18 14:32 43.869463 -123.257879 358 16596ft 278kts
22-Jan-18 14:33 43.939263 -123.248174 359 15205ft 274kts
22-Jan-18 14:34 44.007797 -123.238625 359 13823ft 270kts
22-Jan-18 14:35 44.072337 -123.208959 51 12394ft 289kts
22-Jan-18 14:36 44.109758 -123.139775 47 11226ft 286kts
22-Jan-18 14:37 44.141648 -123.084632 47 10259ft 283kts
22-Jan-18 14:38 44.184032 -123.012009 47 8970ft 280kts
22-Jan-18 14:39 44.226655 -122.938944 48 8023ft 261kts
22-Jan-18 14:40 44.266478 -122.870547 47 8006ft 206kts
22-Jan-18 14:41 44.300973 -122.811204 47 8019ft 204kts
22-Jan-18 14:42 44.336096 -122.750635 47 8019ft 204kts
22-Jan-18 14:43 44.371383 -122.689668 47 8010ft 206kts
22-Jan-18 14:44 44.407324 -122.628905 32 7984ft 205kts
22-Jan-18 14:45 44.458188 -122.642965 328 7344ft 206kts
22-Jan-18 14:46 44.511016 -122.681849 325 6287ft 224kts
22-Jan-18 14:47 44.564100 -122.723573 324 5505ft 195kts
22-Jan-18 14:48 44.606014 -122.757007 323 5604ft 167kts
22-Jan-18 14:49 44.645045 -122.788267 324 5604ft 160kts
22-Jan-18 14:50 44.683985 -122.816287 325 5337ft 167kts
22-Jan-18 14:51 44.724167 -122.849844 324 4553ft 170kts
22-Jan-18 14:52 44.763406 -122.882613 327 3393ft 162kts
22-Jan-18 14:53 44.798166 -122.910993 323 2132ft 131kts
22-Jan-18 14:54 44.827929 -122.935411 326 1902ft 126kts
22-Jan-18 14:55 44.858260 -122.959871 327 1250ft 128kts
22-Jan-18 14:56 44.887243 -122.983280 327 606ft 127kts
22-Jan-18 14:57 44.914358 -123.005253 327 219ft 101kts
22-Jan-18 14:58 44.917392 -123.007993 164 219ft 23kts
22-Jan-18 14:59 44.914891 -123.009356 150 219ft 0kts
22-Jan-18 15:00 44.914891 -123.009356 150 219ft 0kts
22-Jan-18 15:01 44.914891 -123.009356 150 219ft 0kts

Navigation Log

Ident Type
Flight plan parsing failed, navigation log unavailable